createdAt,value
2023-02-25T00:01:57.724Z,46.80
2023-02-25T00:04:31.633Z,49.60
2023-02-25T00:06:59.679Z,50.80
2023-02-25T00:09:28.284Z,47.00
2023-02-25T00:11:56.088Z,47.80
2023-02-25T00:14:23.784Z,49.50
2023-02-25T00:16:51.585Z,47.60
2023-02-25T00:19:19.322Z,48.00
2023-02-25T00:21:47.032Z,49.90
2023-02-25T00:24:17.001Z,50.10
2023-02-25T00:26:45.331Z,51.00
2023-02-25T00:29:13.162Z,43.80
2023-02-25T00:31:41.562Z,43.10
2023-02-25T00:34:09.500Z,48.20
2023-02-25T00:36:37.369Z,50.40
2023-02-25T00:39:05.800Z,48.90
2023-02-25T00:41:33.550Z,49.90
2023-02-25T00:44:02.782Z,46.40
2023-02-25T00:46:31.408Z,47.70
2023-02-25T00:49:00.203Z,48.10
2023-02-25T00:51:30.989Z,47.00
2023-02-25T00:53:58.813Z,47.00
2023-02-25T00:56:27.247Z,45.60
2023-02-25T00:58:55.661Z,46.20
2023-02-25T01:01:29.415Z,48.20
2023-02-25T01:03:57.796Z,43.30
2023-02-25T01:06:27.688Z,48.90
2023-02-25T01:08:56.919Z,46.90
2023-02-25T01:11:30.148Z,44.60
2023-02-25T01:14:03.636Z,46.80
2023-02-25T01:16:33.390Z,44.10
2023-02-25T01:19:04.008Z,46.10
2023-02-25T01:21:35.089Z,42.80
2023-02-25T01:24:07.066Z,42.20
2023-02-25T01:26:39.772Z,42.00
2023-02-25T01:29:08.964Z,45.10
2023-02-25T01:31:38.290Z,43.90
2023-02-25T01:34:08.313Z,42.70
2023-02-25T01:36:37.316Z,38.50
2023-02-25T01:39:05.423Z,41.50
2023-02-25T01:41:35.525Z,44.70
2023-02-25T01:44:04.763Z,44.50
2023-02-25T01:46:32.711Z,41.70
2023-02-25T01:49:02.210Z,43.80
2023-02-25T01:51:33.402Z,41.30
2023-02-25T01:54:03.830Z,42.90
2023-02-25T01:56:32.038Z,40.10
2023-02-25T01:59:00.538Z,42.90
2023-02-25T02:01:35.445Z,44.00
2023-02-25T02:04:06.759Z,41.70
2023-02-25T02:06:42.818Z,38.10
2023-02-25T02:09:18.132Z,41.70
2023-02-25T02:11:45.915Z,41.50
2023-02-25T02:14:23.429Z,40.00
2023-02-25T02:17:06.313Z,41.20
2023-02-25T02:19:52.280Z,42.40
2023-02-25T02:22:45.244Z,38.70
2023-02-25T02:25:51.672Z,37.50
2023-02-25T02:28:32.819Z,39.00
2023-02-25T02:31:15.704Z,35.30
2023-02-25T02:33:59.654Z,33.80
2023-02-25T02:39:25.215Z,33.30
2023-02-25T02:42:11.307Z,37.10
2023-02-25T02:44:48.123Z,36.80
2023-02-25T02:47:24.236Z,35.20
2023-02-25T02:49:57.451Z,35.70
2023-02-25T02:52:30.440Z,34.30
2023-02-25T02:55:10.299Z,36.60
2023-02-25T02:57:41.772Z,38.60
2023-02-25T03:00:19.102Z,39.70
2023-02-25T03:02:55.891Z,35.80
2023-02-25T03:05:27.818Z,36.80
2023-02-25T03:08:08.365Z,34.10
2023-02-25T03:10:36.563Z,34.60
2023-02-25T03:13:04.700Z,37.00
2023-02-25T03:15:34.450Z,36.00
2023-02-25T03:18:12.280Z,36.10
2023-02-25T03:20:49.479Z,34.00
2023-02-25T03:23:26.744Z,35.30
2023-02-25T03:26:42.887Z,35.20
2023-02-25T03:29:23.943Z,35.30
2023-02-25T03:32:09.437Z,34.10
2023-02-25T03:34:42.469Z,36.00
2023-02-25T03:37:16.702Z,36.30
2023-02-25T03:39:52.108Z,35.40
2023-02-25T03:42:26.022Z,36.00
2023-02-25T03:44:56.862Z,36.30
2023-02-25T03:47:29.264Z,32.60
2023-02-25T03:50:12.424Z,18.40
2023-02-25T03:52:41.378Z,16.30
2023-02-25T03:55:10.410Z,13.80
2023-02-25T03:57:44.233Z,14.10
2023-02-25T04:00:27.400Z,12.70
2023-02-25T04:02:55.680Z,12.00
2023-02-25T04:05:27.832Z,11.10
2023-02-25T04:07:57.900Z,11.40
2023-02-25T04:10:26.401Z,11.30
2023-02-25T04:12:54.185Z,7.30
2023-02-25T04:15:22.516Z,6.30
2023-02-25T04:17:50.723Z,5.90
2023-02-25T04:20:19.799Z,5.60
2023-02-25T04:22:47.520Z,5.70
2023-02-25T04:25:15.273Z,5.30
2023-02-25T04:27:42.998Z,5.90
2023-02-25T04:30:11.688Z,6.40
2023-02-25T04:32:40.042Z,5.60
2023-02-25T04:35:11.841Z,6.60
2023-02-25T04:37:41.187Z,7.00
2023-02-25T04:40:15.158Z,6.90
2023-02-25T04:42:43.480Z,7.20
2023-02-25T04:45:12.632Z,7.70
2023-02-25T04:47:40.733Z,6.70
2023-02-25T04:50:10.256Z,6.60
2023-02-25T04:52:38.048Z,7.30
2023-02-25T04:55:06.397Z,6.80
2023-02-25T04:57:34.676Z,7.60
2023-02-25T05:00:02.546Z,7.70
2023-02-25T05:02:32.830Z,7.30
2023-02-25T05:05:00.683Z,7.90
2023-02-25T05:07:28.444Z,7.20
2023-02-25T05:09:56.165Z,9.40
2023-02-25T05:12:23.904Z,9.50
2023-02-25T05:14:52.243Z,11.20
2023-02-25T05:17:20.005Z,10.80
2023-02-25T05:19:47.737Z,8.20
2023-02-25T05:22:15.521Z,14.90
2023-02-25T05:24:43.521Z,17.90
2023-02-25T05:27:11.402Z,22.10
2023-02-25T05:29:39.747Z,16.90
2023-02-25T05:32:07.836Z,21.40
2023-02-25T05:34:35.698Z,14.40
2023-02-25T05:37:03.643Z,13.20
2023-02-25T05:39:31.369Z,16.50
2023-02-25T05:41:59.137Z,8.80
2023-02-25T05:44:27.416Z,7.30
2023-02-25T05:46:55.288Z,8.60
2023-02-25T05:49:23.251Z,8.00
2023-02-25T05:51:51.195Z,7.20
2023-02-25T05:54:18.929Z,7.90
2023-02-25T05:56:46.717Z,8.60
2023-02-25T05:59:16.814Z,8.40
2023-02-25T06:01:44.875Z,8.60
2023-02-25T06:04:12.722Z,9.30
2023-02-25T06:06:41.831Z,8.40
2023-02-25T06:09:10.458Z,6.60
2023-02-25T06:11:38.742Z,6.30
2023-02-25T06:14:06.453Z,5.80
2023-02-25T06:16:34.248Z,6.00
2023-02-25T06:19:02.537Z,7.90
2023-02-25T06:21:31.428Z,5.30
2023-02-25T06:23:59.343Z,6.30
2023-02-25T06:26:27.650Z,6.60
2023-02-25T06:28:55.727Z,6.20
2023-02-25T06:31:25.237Z,7.10
2023-02-25T06:33:55.117Z,5.30
2023-02-25T06:36:23.312Z,5.50
2023-02-25T06:38:51.301Z,5.40
2023-02-25T06:41:22.107Z,5.30
2023-02-25T06:43:52.844Z,4.80
2023-02-25T06:46:24.020Z,5.60
2023-02-25T06:48:52.707Z,6.80
2023-02-25T06:51:22.441Z,6.10
2023-02-25T06:53:51.171Z,7.20
2023-02-25T06:56:20.408Z,7.00
2023-02-25T06:58:48.304Z,13.40
2023-02-25T07:01:17.131Z,15.50
2023-02-25T07:03:45.571Z,13.10
2023-02-25T07:06:16.732Z,10.10
2023-02-25T07:08:45.343Z,7.10
2023-02-25T07:11:21.792Z,6.70
2023-02-25T07:13:50.417Z,6.10
2023-02-25T07:16:18.615Z,6.40
2023-02-25T07:18:46.813Z,6.10
2023-02-25T07:21:15.884Z,5.70
2023-02-25T07:23:44.533Z,10.90
2023-02-25T07:26:14.306Z,26.40
2023-02-25T07:28:43.446Z,18.20
2023-02-25T07:31:17.554Z,23.20
2023-02-25T07:33:45.904Z,14.60
2023-02-25T07:36:15.035Z,16.20
2023-02-25T07:38:43.170Z,16.10
2023-02-25T07:41:14.315Z,12.70
2023-02-25T07:43:43.310Z,15.00
2023-02-25T07:46:11.355Z,12.60
2023-02-25T07:48:39.235Z,9.40
2023-02-25T07:51:13.509Z,8.80
2023-02-25T07:53:41.869Z,8.90
2023-02-25T07:56:11.482Z,9.20
2023-02-25T07:58:39.856Z,9.10
2023-02-25T08:01:09.417Z,9.30
2023-02-25T08:03:38.485Z,9.40
2023-02-25T08:06:09.663Z,8.60
2023-02-25T08:08:38.234Z,9.40
2023-02-25T08:11:11.178Z,8.90
2023-02-25T08:13:39.654Z,8.20
2023-02-25T08:16:14.393Z,9.00
2023-02-25T08:18:43.708Z,10.50
2023-02-25T08:21:13.167Z,11.10
2023-02-25T08:23:41.164Z,11.20
2023-02-25T08:26:12.106Z,10.90
2023-02-25T08:28:39.905Z,10.00
2023-02-25T08:31:11.977Z,13.50
2023-02-25T08:33:43.397Z,10.50
2023-02-25T08:36:17.688Z,9.90
2023-02-25T08:38:45.445Z,10.40
2023-02-25T08:41:13.372Z,10.00
2023-02-25T08:43:42.074Z,10.70
2023-02-25T08:46:10.389Z,12.20
2023-02-25T08:48:38.240Z,9.80
2023-02-25T08:51:08.774Z,12.50
2023-02-25T08:53:38.994Z,12.70
2023-02-25T08:56:10.535Z,15.90
2023-02-25T08:58:39.557Z,16.50
2023-02-25T09:01:16.398Z,11.70
2023-02-25T09:03:53.243Z,12.00
2023-02-25T09:06:24.233Z,11.40
2023-02-25T09:08:53.279Z,10.60
2023-02-25T09:11:22.696Z,9.20
2023-02-25T09:13:52.177Z,9.30
2023-02-25T09:16:20.378Z,10.20
2023-02-25T09:18:51.676Z,10.00
2023-02-25T09:21:20.280Z,10.80
2023-02-25T09:23:48.473Z,11.00
2023-02-25T09:26:16.266Z,9.80
2023-02-25T09:28:44.712Z,10.30
2023-02-25T09:31:12.598Z,10.20
2023-02-25T09:33:42.801Z,10.00
2023-02-25T09:36:13.706Z,11.50
2023-02-25T09:38:42.825Z,11.60
2023-02-25T09:41:30.432Z,11.10
2023-02-25T09:44:05.893Z,9.50
2023-02-25T09:46:36.338Z,11.30
2023-02-25T09:49:35.161Z,9.90
2023-02-25T09:52:18.611Z,9.70
2023-02-25T09:54:50.205Z,10.20
2023-02-25T09:57:21.658Z,9.70
2023-02-25T09:59:53.680Z,8.90
2023-02-25T10:02:32.267Z,10.10
2023-02-25T10:05:18.844Z,9.50
2023-02-25T10:08:02.287Z,8.70
2023-02-25T10:10:52.430Z,9.20
2023-02-25T10:13:22.892Z,9.90
2023-02-25T10:16:25.069Z,11.50
2023-02-25T10:19:05.818Z,11.20
2023-02-25T10:21:49.935Z,10.30
2023-02-25T10:24:24.027Z,11.40
2023-02-25T10:27:00.003Z,9.40
2023-02-25T10:29:35.306Z,10.90
2023-02-25T10:32:16.786Z,10.00
2023-02-25T10:34:44.832Z,9.00
2023-02-25T10:37:27.281Z,8.10
2023-02-25T10:39:58.952Z,7.20
2023-02-25T10:42:27.369Z,8.00
2023-02-25T10:45:02.027Z,6.80
2023-02-25T10:47:34.841Z,5.80
2023-02-25T10:50:25.816Z,4.80
2023-02-25T10:53:12.504Z,4.40
2023-02-25T10:55:43.412Z,7.20
2023-02-25T10:58:29.671Z,7.30
2023-02-25T11:01:07.401Z,8.90
2023-02-25T11:03:59.017Z,11.00
2023-02-25T11:06:32.458Z,11.90
2023-02-25T11:11:32.502Z,15.70
2023-02-25T11:14:00.835Z,6.20
2023-02-25T11:16:31.065Z,5.40
2023-02-25T11:19:02.680Z,14.20
2023-02-25T11:21:35.067Z,9.30
2023-02-25T11:24:17.383Z,10.60
2023-02-25T11:26:48.313Z,10.80
2023-02-25T11:29:21.208Z,10.80
2023-02-25T11:32:09.104Z,8.90
2023-02-25T11:34:56.192Z,9.90
2023-02-25T11:37:45.594Z,7.30
2023-02-25T11:40:24.997Z,9.00
2023-02-25T11:43:04.984Z,9.10
2023-02-25T11:45:36.182Z,8.70
2023-02-25T11:48:07.178Z,9.30
2023-02-25T11:50:48.792Z,6.30
2023-02-25T11:53:45.241Z,10.50
2023-02-25T11:56:35.712Z,10.80
2023-02-25T11:59:31.585Z,9.20
2023-02-25T12:02:47.773Z,10.60
2023-02-25T12:05:43.673Z,5.70
2023-02-25T12:08:24.039Z,3.90
2023-02-25T12:11:09.864Z,3.90
2023-02-25T12:13:56.338Z,3.80
2023-02-25T12:16:36.593Z,6.60
2023-02-25T12:19:36.073Z,4.60
2023-02-25T12:22:12.774Z,7.30
2023-02-25T12:25:12.258Z,6.30
2023-02-25T12:27:58.416Z,4.60
2023-02-25T12:30:57.153Z,5.40
2023-02-25T12:33:43.418Z,4.50
2023-02-25T12:36:57.105Z,4.40
2023-02-25T12:39:55.743Z,3.50
2023-02-25T12:42:35.744Z,4.40
2023-02-25T12:45:25.019Z,4.80
2023-02-25T12:48:02.685Z,4.50
2023-02-25T12:51:09.364Z,4.40
2023-02-25T12:53:42.996Z,5.10
2023-02-25T12:59:10.650Z,4.50
2023-02-25T13:01:48.338Z,3.70
2023-02-25T13:04:22.250Z,4.50
2023-02-25T13:07:14.508Z,4.90
2023-02-25T13:10:09.670Z,4.40
2023-02-25T13:12:59.458Z,4.40
2023-02-25T13:15:58.722Z,4.80
2023-02-25T13:18:54.359Z,4.30
2023-02-25T13:21:28.186Z,4.50
2023-02-25T13:24:21.699Z,4.60
2023-02-25T13:27:20.900Z,4.10
2023-02-25T13:29:54.737Z,4.00
2023-02-25T13:32:41.393Z,2.30
2023-02-25T13:35:25.928Z,2.30
2023-02-25T13:38:09.112Z,2.70
2023-02-25T13:41:07.816Z,3.40
2023-02-25T13:44:13.034Z,4.00
2023-02-25T13:47:21.262Z,5.70
2023-02-25T13:50:21.631Z,4.60
2023-02-25T13:52:49.400Z,4.00
2023-02-25T13:55:27.043Z,4.50
2023-02-25T13:58:20.065Z,5.30
2023-02-25T14:00:54.203Z,6.70
2023-02-25T14:03:41.424Z,7.00
2023-02-25T14:06:23.049Z,4.80
2023-02-25T14:09:09.600Z,6.70
2023-02-25T14:12:12.438Z,5.70
2023-02-25T14:14:57.346Z,4.70
2023-02-25T14:17:51.108Z,4.30
2023-02-25T14:20:36.370Z,4.80
2023-02-25T14:23:22.363Z,4.30
2023-02-25T14:26:15.985Z,4.10
2023-02-25T14:28:51.178Z,5.50
2023-02-25T14:31:52.117Z,6.60
2023-02-25T14:34:37.889Z,4.90
2023-02-25T14:37:18.914Z,7.30
2023-02-25T14:40:12.788Z,5.00
2023-02-25T14:43:03.716Z,5.20
2023-02-25T14:45:45.410Z,10.20
2023-02-25T14:48:35.001Z,13.80
2023-02-25T14:51:33.561Z,13.30
2023-02-25T14:54:39.239Z,24.10
2023-02-25T14:57:16.507Z,15.50
2023-02-25T15:00:09.724Z,12.70
2023-02-25T15:02:47.025Z,14.00
2023-02-25T15:05:24.599Z,7.00
2023-02-25T15:08:19.113Z,18.20
2023-02-25T15:11:13.929Z,22.00
2023-02-25T15:14:03.798Z,22.90
2023-02-25T15:16:44.257Z,17.90
2023-02-25T15:19:34.545Z,16.30
2023-02-25T15:22:11.159Z,9.10
2023-02-25T15:24:41.585Z,14.60
2023-02-25T15:27:32.076Z,8.90
2023-02-25T15:30:12.052Z,7.70
2023-02-25T15:32:56.530Z,6.50
2023-02-25T15:35:52.210Z,6.20
2023-02-25T15:38:22.859Z,6.60
2023-02-25T15:40:52.990Z,8.70
2023-02-25T15:43:26.581Z,9.90
2023-02-25T15:48:36.526Z,13.10
2023-02-25T15:51:09.195Z,9.70
2023-02-25T15:53:41.473Z,9.70
2023-02-25T15:56:12.449Z,13.20
2023-02-25T15:58:52.273Z,13.70
2023-02-25T16:01:30.971Z,16.90
2023-02-25T16:03:59.107Z,17.90
2023-02-25T16:06:39.581Z,14.30
2023-02-25T16:09:12.975Z,11.80
2023-02-25T16:11:53.692Z,12.70
2023-02-25T16:14:27.616Z,13.80
2023-02-25T16:17:03.826Z,16.20
2023-02-25T16:19:36.866Z,19.10
2023-02-25T16:22:12.786Z,25.50
2023-02-25T16:24:52.360Z,24.50
2023-02-25T16:27:55.321Z,29.50
2023-02-25T16:30:30.061Z,24.80
2023-02-25T16:33:21.954Z,28.20
2023-02-25T16:36:06.907Z,36.40
2023-02-25T16:38:50.868Z,36.10
2023-02-25T16:41:22.196Z,35.20
2023-02-25T16:43:50.200Z,31.00
2023-02-25T16:46:24.086Z,22.40
2023-02-25T16:48:57.095Z,15.20
2023-02-25T16:51:34.566Z,15.00
2023-02-25T16:54:18.761Z,20.20
2023-02-25T16:56:50.448Z,18.60
2023-02-25T16:59:21.783Z,19.20
2023-02-25T17:02:16.570Z,16.60
2023-02-25T17:04:51.732Z,13.00
2023-02-25T17:07:28.023Z,15.30
2023-02-25T17:10:02.995Z,15.50
2023-02-25T17:12:43.716Z,15.90
2023-02-25T17:15:24.794Z,18.80
2023-02-25T17:18:07.343Z,18.40
2023-02-25T17:20:37.281Z,13.00
2023-02-25T17:23:09.341Z,22.30
2023-02-25T17:25:40.861Z,14.80
2023-02-25T17:28:20.703Z,11.50
2023-02-25T17:30:49.542Z,9.30
2023-02-25T17:33:29.268Z,11.00
2023-02-25T17:36:01.813Z,10.50
2023-02-25T17:38:30.076Z,12.80
2023-02-25T17:40:59.452Z,10.80
2023-02-25T17:43:38.974Z,12.50
2023-02-25T17:46:37.936Z,76.20
2023-02-25T17:49:21.336Z,136.20
2023-02-25T17:51:55.432Z,30.00
2023-02-25T17:54:26.242Z,17.80
2023-02-25T17:57:00.886Z,21.00
2023-02-25T17:59:39.324Z,24.00
2023-02-25T18:02:30.858Z,15.20
2023-02-25T18:05:14.053Z,19.70
2023-02-25T18:07:43.830Z,16.60
2023-02-25T18:10:26.709Z,19.50
2023-02-25T18:12:55.400Z,18.10
2023-02-25T18:15:27.018Z,21.50
2023-02-25T18:18:01.527Z,25.70
2023-02-25T18:20:36.460Z,23.70
2023-02-25T18:23:07.509Z,22.90
2023-02-25T18:25:39.574Z,14.20
2023-02-25T18:28:16.213Z,16.70
2023-02-25T18:30:46.144Z,13.00
2023-02-25T18:33:14.025Z,12.70
2023-02-25T18:35:45.279Z,16.00
2023-02-25T18:38:19.469Z,17.40
2023-02-25T18:40:48.488Z,15.10
2023-02-25T18:43:21.915Z,14.70
2023-02-25T18:45:50.352Z,21.70
2023-02-25T18:48:18.222Z,23.30
2023-02-25T18:50:46.026Z,18.50
2023-02-25T18:53:15.313Z,20.70
2023-02-25T18:55:43.205Z,19.30
2023-02-25T18:58:18.682Z,20.70
2023-02-25T19:00:50.247Z,27.30
2023-02-25T19:03:33.651Z,28.60
2023-02-25T19:06:01.446Z,24.60
2023-02-25T19:08:30.091Z,33.30
2023-02-25T19:10:57.850Z,28.60
2023-02-25T19:13:42.077Z,26.40
2023-02-25T19:16:09.932Z,22.80
2023-02-25T19:18:39.504Z,22.20
2023-02-25T19:21:14.165Z,24.90
2023-02-25T19:23:42.455Z,19.90
2023-02-25T19:26:10.753Z,20.90
2023-02-25T19:28:38.849Z,20.50
2023-02-25T19:31:08.150Z,18.90
2023-02-25T19:33:36.168Z,13.80
2023-02-25T19:36:04.787Z,17.30
2023-02-25T19:38:32.801Z,14.70
2023-02-25T19:41:02.888Z,14.50
2023-02-25T19:43:32.533Z,16.50
2023-02-25T19:46:01.332Z,13.60
2023-02-25T19:48:29.513Z,15.10
2023-02-25T19:50:57.400Z,19.10
2023-02-25T19:53:25.262Z,16.70
2023-02-25T19:55:56.390Z,15.20
2023-02-25T19:58:25.004Z,16.00
2023-02-25T20:00:53.641Z,16.50
2023-02-25T20:03:21.675Z,17.40
2023-02-25T20:05:49.684Z,20.50
2023-02-25T20:08:17.937Z,20.10
2023-02-25T20:10:46.045Z,19.80
2023-02-25T20:13:15.259Z,17.40
2023-02-25T20:15:43.868Z,19.40
2023-02-25T20:18:11.767Z,16.40
2023-02-25T20:20:42.399Z,20.50
2023-02-25T20:23:10.153Z,21.20
2023-02-25T20:25:38.014Z,27.60
2023-02-25T20:28:07.101Z,26.30
2023-02-25T20:30:36.063Z,27.20
2023-02-25T20:33:04.766Z,24.40
2023-02-25T20:35:33.146Z,22.00
2023-02-25T20:38:27.636Z,25.10
2023-02-25T20:40:55.864Z,24.90
2023-02-25T20:43:27.446Z,19.20
2023-02-25T20:45:55.606Z,17.90
2023-02-25T20:48:32.502Z,17.60
2023-02-25T20:51:03.526Z,11.40
2023-02-25T20:53:31.580Z,13.20
2023-02-25T20:56:03.291Z,11.10
2023-02-25T20:58:31.240Z,9.70
2023-02-25T21:00:59.342Z,8.50
2023-02-25T21:03:27.830Z,8.50
2023-02-25T21:05:55.729Z,8.00
2023-02-25T21:08:24.614Z,8.40
2023-02-25T21:10:58.392Z,8.10
2023-02-25T21:13:26.342Z,10.10
2023-02-25T21:16:02.238Z,8.20
2023-02-25T21:18:31.151Z,8.60
2023-02-25T21:21:03.176Z,7.20
2023-02-25T21:23:32.763Z,7.90
2023-02-25T21:26:05.477Z,7.70
2023-02-25T21:28:33.344Z,9.50
2023-02-25T21:31:04.336Z,8.20
2023-02-25T21:33:33.700Z,8.30
2023-02-25T21:36:02.916Z,7.90
2023-02-25T21:38:31.167Z,8.20
2023-02-25T21:41:08.991Z,8.20
2023-02-25T21:43:38.193Z,8.40
2023-02-25T21:46:11.739Z,9.00
2023-02-25T21:48:41.174Z,8.80
2023-02-25T21:51:22.858Z,8.90
2023-02-25T21:53:55.947Z,9.20
2023-02-25T21:56:26.072Z,9.60
2023-02-25T21:58:59.910Z,9.90
2023-02-25T22:01:30.899Z,11.70
2023-02-25T22:03:59.372Z,9.40
2023-02-25T22:06:28.607Z,9.30
2023-02-25T22:08:57.879Z,10.20
2023-02-25T22:11:31.120Z,10.00
2023-02-25T22:14:01.498Z,10.90
2023-02-25T22:16:29.901Z,9.80
2023-02-25T22:18:59.164Z,10.30
2023-02-25T22:21:31.620Z,15.80
2023-02-25T22:24:01.742Z,11.20
2023-02-25T22:26:33.355Z,13.10
2023-02-25T22:29:08.891Z,12.70
2023-02-25T22:31:37.441Z,10.50
2023-02-25T22:34:06.444Z,12.50
2023-02-25T22:36:35.321Z,9.60
2023-02-25T22:39:06.370Z,9.80
2023-02-25T22:41:34.881Z,14.60
2023-02-25T22:44:06.505Z,10.20
2023-02-25T22:46:37.511Z,10.90
2023-02-25T22:49:07.769Z,10.70
2023-02-25T22:51:42.276Z,10.00
2023-02-25T22:54:15.913Z,11.00
2023-02-25T22:56:44.907Z,9.70
2023-02-25T22:59:14.709Z,10.20
2023-02-25T23:01:43.724Z,9.10
2023-02-25T23:04:11.688Z,10.20
2023-02-25T23:06:44.269Z,12.60
2023-02-25T23:09:17.428Z,13.30
2023-02-25T23:11:46.228Z,12.00
2023-02-25T23:14:14.942Z,10.20
2023-02-25T23:16:45.310Z,9.60
2023-02-25T23:19:17.068Z,10.90
2023-02-25T23:21:45.526Z,10.30
2023-02-25T23:24:18.598Z,12.50
2023-02-25T23:26:50.494Z,14.20
2023-02-25T23:29:18.478Z,12.10
2023-02-25T23:31:48.339Z,13.10
2023-02-25T23:34:23.910Z,13.60
2023-02-25T23:36:56.595Z,12.70
2023-02-25T23:39:24.986Z,11.80
2023-02-25T23:41:52.945Z,12.50
2023-02-25T23:44:20.872Z,10.10
2023-02-25T23:46:49.164Z,10.00
2023-02-25T23:49:18.004Z,11.30
2023-02-25T23:51:47.637Z,9.50
2023-02-25T23:54:20.102Z,10.40
2023-02-25T23:56:49.961Z,9.80
2023-02-25T23:59:17.848Z,10.20
